createdAt,value
2018-04-24T00:02:23.296Z,14.60
2018-04-24T00:04:53.462Z,13.27
2018-04-24T00:07:22.824Z,14.73
2018-04-24T00:09:53.078Z,12.87
2018-04-24T00:12:22.527Z,16.37
2018-04-24T00:14:51.884Z,13.73
2018-04-24T00:17:21.245Z,13.57
2018-04-24T00:19:50.661Z,19.00
2018-04-24T00:22:21.665Z,13.83
2018-04-24T00:28:13.530Z,12.30
2018-04-24T00:30:43.470Z,15.60
2018-04-24T00:33:12.737Z,13.23
2018-04-24T00:35:42.103Z,11.90
2018-04-24T00:38:11.361Z,15.17
2018-04-24T00:40:41.452Z,16.73
2018-04-24T00:43:10.769Z,17.30
2018-04-24T00:45:40.016Z,15.07
2018-04-24T00:48:09.280Z,22.43
2018-04-24T00:50:38.712Z,14.70
2018-04-24T00:53:19.326Z,14.97
2018-04-24T00:55:48.661Z,14.50
2018-04-24T00:58:17.922Z,19.13
2018-04-24T01:00:47.190Z,16.17
2018-04-24T01:03:16.511Z,14.90
2018-04-24T01:05:46.556Z,17.07
2018-04-24T01:12:09.687Z,13.17
2018-04-24T01:14:39.907Z,19.60
2018-04-24T01:17:09.232Z,16.17
2018-04-24T01:19:40.512Z,20.33
2018-04-24T01:22:10.025Z,20.03
2018-04-24T01:24:39.312Z,24.47
2018-04-24T01:27:09.768Z,16.27
2018-04-24T01:29:39.018Z,27.07
2018-04-24T01:32:08.318Z,23.60
2018-04-24T01:34:37.682Z,47.90
2018-04-24T01:37:06.950Z,25.50
2018-04-24T01:39:36.198Z,22.17
2018-04-24T01:44:45.487Z,19.37
2018-04-24T01:47:14.867Z,24.50
2018-04-24T01:49:44.199Z,23.97
2018-04-24T01:52:13.446Z,21.63
2018-04-24T01:54:42.860Z,23.77
2018-04-24T01:57:13.078Z,32.50
2018-04-24T01:59:43.608Z,21.60
2018-04-24T02:02:12.904Z,22.50
2018-04-24T02:04:42.843Z,19.07
2018-04-24T02:07:12.670Z,22.40
2018-04-24T02:09:41.957Z,20.43
2018-04-24T02:12:11.286Z,23.23
2018-04-24T02:14:40.577Z,19.87
2018-04-24T02:17:10.899Z,20.90
2018-04-24T02:19:40.201Z,24.07
2018-04-24T02:22:12.838Z,26.83
2018-04-24T02:24:42.339Z,27.93
2018-04-24T02:27:11.868Z,25.80
2018-04-24T02:29:41.164Z,22.03
2018-04-24T02:32:11.099Z,22.03
2018-04-24T02:34:40.601Z,26.23
2018-04-24T02:37:10.900Z,31.83
2018-04-24T02:39:40.257Z,31.13
2018-04-24T02:42:10.435Z,37.87
2018-04-24T02:44:40.880Z,28.40
2018-04-24T02:47:10.588Z,29.30
2018-04-24T02:49:39.941Z,22.83
2018-04-24T02:52:09.543Z,25.97
2018-04-24T02:54:38.812Z,28.80
2018-04-24T02:57:08.194Z,29.27
2018-04-24T02:59:37.497Z,25.50
2018-04-24T03:02:06.788Z,34.37
2018-04-24T03:04:36.134Z,28.23
2018-04-24T03:07:06.274Z,29.40
2018-04-24T03:09:35.523Z,37.10
2018-04-24T03:12:04.839Z,41.43
2018-04-24T03:14:34.126Z,30.00
2018-04-24T03:17:03.429Z,30.40
2018-04-24T03:19:32.772Z,27.97
2018-04-24T03:22:02.049Z,25.10
2018-04-24T03:24:31.317Z,27.03
2018-04-24T03:27:00.635Z,26.10
2018-04-24T03:29:31.612Z,28.97
2018-04-24T03:32:02.670Z,24.53
2018-04-24T03:34:35.879Z,26.93
2018-04-24T03:37:05.342Z,27.00
2018-04-24T03:39:35.334Z,28.00
2018-04-24T03:42:04.854Z,26.87
2018-04-24T03:44:34.150Z,31.53
2018-04-24T03:47:03.414Z,31.13
2018-04-24T03:49:32.912Z,24.93
2018-04-24T03:52:03.287Z,37.13
2018-04-24T03:54:33.378Z,25.73
2018-04-24T03:57:03.212Z,32.97
2018-04-24T03:59:32.475Z,35.00
2018-04-24T04:02:03.751Z,42.77
2018-04-24T04:04:33.050Z,33.27
2018-04-24T04:07:02.370Z,26.07
2018-04-24T04:09:31.918Z,28.80
2018-04-24T04:15:32.431Z,28.70
2018-04-24T04:21:35.142Z,26.80
2018-04-24T04:24:15.877Z,32.13
2018-04-24T04:26:45.460Z,31.10
2018-04-24T04:29:15.729Z,23.53
2018-04-24T04:31:45.297Z,27.43
2018-04-24T04:34:14.843Z,31.50
2018-04-24T04:36:44.369Z,35.40
2018-04-24T04:39:13.942Z,39.00
2018-04-24T04:41:44.274Z,34.30
2018-04-24T04:44:13.911Z,32.87
2018-04-24T04:46:43.419Z,31.87
2018-04-24T04:49:12.982Z,34.00
2018-04-24T04:51:42.576Z,32.17
2018-04-24T04:54:12.096Z,25.83
2018-04-24T04:56:41.666Z,29.57
2018-04-24T04:59:12.127Z,24.97
2018-04-24T05:01:41.823Z,30.07
2018-04-24T05:04:11.323Z,29.27
2018-04-24T05:06:40.914Z,27.63
2018-04-24T05:09:10.439Z,29.27
2018-04-24T05:11:40.213Z,27.80
2018-04-24T05:14:09.854Z,26.43
2018-04-24T05:16:42.267Z,28.57
2018-04-24T05:19:12.755Z,32.17
2018-04-24T05:21:46.283Z,27.13
2018-04-24T05:24:16.728Z,27.60
2018-04-24T05:26:46.304Z,27.80
2018-04-24T05:29:15.800Z,28.70
2018-04-24T05:31:45.362Z,33.90
2018-04-24T05:34:15.417Z,34.33
2018-04-24T05:36:45.420Z,24.10
2018-04-24T05:39:16.307Z,28.93
2018-04-24T05:41:46.030Z,27.90
2018-04-24T05:44:17.151Z,31.37
2018-04-24T05:46:48.258Z,26.03
2018-04-24T05:52:38.674Z,24.80
2018-04-24T05:55:08.038Z,25.97
2018-04-24T05:57:37.415Z,28.60
2018-04-24T06:00:06.836Z,27.43
2018-04-24T06:02:36.187Z,28.57
2018-04-24T06:05:05.584Z,22.67
2018-04-24T06:07:35.407Z,28.43
2018-04-24T06:10:04.764Z,26.57
2018-04-24T06:12:34.130Z,29.70
2018-04-24T06:15:03.579Z,32.90
2018-04-24T06:17:33.795Z,32.00
2018-04-24T06:20:03.426Z,32.97
2018-04-24T06:22:32.800Z,39.43
2018-04-24T06:25:03.165Z,32.00
2018-04-24T06:27:32.584Z,35.10
2018-04-24T06:30:02.001Z,37.13
2018-04-24T06:32:31.419Z,35.17
2018-04-24T06:35:00.785Z,35.93
2018-04-24T06:40:50.717Z,36.47
2018-04-24T06:43:20.224Z,46.53
2018-04-24T06:45:49.613Z,45.27
2018-04-24T06:48:19.157Z,44.57
2018-04-24T06:51:26.135Z,47.10
2018-04-24T06:53:55.762Z,45.10
2018-04-24T06:56:25.422Z,43.63
2018-04-24T06:58:55.112Z,45.03
2018-04-24T07:01:25.559Z,41.60
2018-04-24T07:03:55.181Z,40.00
2018-04-24T07:06:25.237Z,41.20
2018-04-24T07:08:55.590Z,44.73
2018-04-24T07:11:25.298Z,45.50
2018-04-24T07:13:55.169Z,41.97
2018-04-24T07:16:24.997Z,52.27
2018-04-24T07:18:54.683Z,50.43
2018-04-24T07:21:24.267Z,58.87
2018-04-24T07:23:54.089Z,59.83
2018-04-24T07:26:23.814Z,55.27
2018-04-24T07:28:53.657Z,54.10
2018-04-24T07:31:23.643Z,52.90
2018-04-24T07:33:53.352Z,55.23
2018-04-24T07:36:49.033Z,52.90
2018-04-24T07:39:19.481Z,56.40
2018-04-24T07:41:49.165Z,52.77
2018-04-24T07:44:18.821Z,52.27
2018-04-24T07:46:48.500Z,53.07
2018-04-24T07:50:05.070Z,50.57
2018-04-24T07:52:34.724Z,46.83
2018-04-24T07:55:04.138Z,48.73
2018-04-24T07:57:34.454Z,52.17
2018-04-24T08:00:03.778Z,50.27
2018-04-24T08:02:33.988Z,54.47
2018-04-24T08:05:03.494Z,51.20
2018-04-24T08:07:33.984Z,48.90
2018-04-24T08:10:03.299Z,55.97
2018-04-24T08:12:32.584Z,42.27
2018-04-24T08:15:02.530Z,40.97
2018-04-24T08:17:31.842Z,42.03
2018-04-24T08:20:01.149Z,41.03
2018-04-24T08:22:41.000Z,47.73
2018-04-24T08:25:11.026Z,52.13
2018-04-24T08:27:40.328Z,50.47
2018-04-24T08:30:09.672Z,43.07
2018-04-24T08:32:39.122Z,41.40
2018-04-24T08:35:08.412Z,39.07
2018-04-24T08:37:37.785Z,42.47
2018-04-24T08:40:07.342Z,37.57
2018-04-24T08:42:37.429Z,38.97
2018-04-24T08:45:07.467Z,40.60
2018-04-24T08:50:58.047Z,39.00
2018-04-24T08:53:27.212Z,38.17
2018-04-24T08:55:56.411Z,33.40
2018-04-24T08:58:25.704Z,42.63
2018-04-24T09:00:54.899Z,33.77
2018-04-24T09:03:24.151Z,39.40
2018-04-24T09:05:53.772Z,38.90
2018-04-24T09:08:23.129Z,41.20
2018-04-24T09:10:52.329Z,36.30
2018-04-24T09:13:21.590Z,38.27
2018-04-24T09:15:50.785Z,41.73
2018-04-24T09:18:19.994Z,37.17
2018-04-24T09:20:49.238Z,37.30
2018-04-24T09:23:18.444Z,35.17
2018-04-24T09:25:47.647Z,37.50
2018-04-24T09:28:16.877Z,38.43
2018-04-24T09:30:46.089Z,33.67
2018-04-24T09:33:15.285Z,39.63
2018-04-24T09:35:44.531Z,39.20
2018-04-24T09:38:13.702Z,34.93
2018-04-24T09:40:42.934Z,32.47
2018-04-24T09:43:12.216Z,39.30
2018-04-24T09:45:42.193Z,38.87
2018-04-24T09:48:47.217Z,32.17
2018-04-24T09:51:17.568Z,30.77
2018-04-24T09:53:47.086Z,33.37
2018-04-24T09:56:16.714Z,34.03
2018-04-24T09:58:46.402Z,32.97
2018-04-24T10:01:15.969Z,32.90
2018-04-24T10:03:45.539Z,43.43
2018-04-24T10:06:14.997Z,37.50
2018-04-24T10:08:44.589Z,40.73
2018-04-24T10:11:14.031Z,46.27
2018-04-24T10:13:43.577Z,46.47
2018-04-24T10:16:13.126Z,41.17
2018-04-24T10:18:44.243Z,38.37
2018-04-24T10:21:13.705Z,45.80
2018-04-24T10:23:43.279Z,46.50
2018-04-24T10:26:12.701Z,74.93
2018-04-24T10:32:13.960Z,102.20
2018-04-24T10:34:43.308Z,87.40
2018-04-24T10:37:12.668Z,81.97
2018-04-24T10:39:42.045Z,82.70
2018-04-24T10:42:11.374Z,90.70
2018-04-24T10:48:01.799Z,97.27
2018-04-24T10:50:31.309Z,73.30
2018-04-24T10:53:01.491Z,82.43
2018-04-24T10:55:30.931Z,69.30
2018-04-24T11:01:22.316Z,67.63
2018-04-24T11:03:51.626Z,51.80
2018-04-24T11:06:21.033Z,53.93
2018-04-24T11:08:50.414Z,54.93
2018-04-24T11:11:19.848Z,42.50
2018-04-24T11:13:49.234Z,39.93
2018-04-24T11:16:18.887Z,46.77
2018-04-24T11:18:48.321Z,45.60
2018-04-24T11:21:17.889Z,49.20
2018-04-24T11:23:47.494Z,52.43
2018-04-24T11:26:16.950Z,51.07
2018-04-24T11:32:07.576Z,57.03
2018-04-24T11:34:40.145Z,53.53
2018-04-24T11:37:10.958Z,51.03
2018-04-24T11:39:42.485Z,53.00
2018-04-24T11:42:12.167Z,48.27
2018-04-24T11:44:41.795Z,48.77
2018-04-24T11:47:14.574Z,49.23
2018-04-24T11:49:45.125Z,52.10
2018-04-24T11:52:14.877Z,54.23
2018-04-24T11:54:44.525Z,47.77
2018-04-24T12:00:45.305Z,62.40
2018-04-24T12:03:15.021Z,44.47
2018-04-24T12:09:05.859Z,48.80
2018-04-24T12:11:35.313Z,46.20
2018-04-24T12:14:04.853Z,47.73
2018-04-24T12:16:34.319Z,49.57
2018-04-24T12:19:05.114Z,53.67
2018-04-24T12:22:11.821Z,44.57
2018-04-24T12:24:41.104Z,42.80
2018-04-24T12:27:10.609Z,39.53
2018-04-24T12:29:39.947Z,43.87
2018-04-24T12:32:09.323Z,57.23
2018-04-24T12:37:59.912Z,59.87
2018-04-24T12:40:29.471Z,58.60
2018-04-24T12:42:59.210Z,57.20
2018-04-24T12:45:28.828Z,55.37
2018-04-24T12:47:58.290Z,39.20
2018-04-24T12:50:27.871Z,38.67
2018-04-24T12:52:57.633Z,29.93
2018-04-24T12:55:27.206Z,40.10
2018-04-24T12:57:56.750Z,38.80
2018-04-24T13:00:26.308Z,39.90
2018-04-24T13:02:55.837Z,30.87
2018-04-24T13:05:25.524Z,32.47
2018-04-24T13:11:15.875Z,31.40
2018-04-24T13:13:45.130Z,26.13
2018-04-24T13:16:14.282Z,30.87
2018-04-24T13:18:43.609Z,32.60
2018-04-24T13:21:13.581Z,30.30
2018-04-24T13:24:13.480Z,29.97
2018-04-24T13:26:42.813Z,27.90
2018-04-24T13:29:12.204Z,23.33
2018-04-24T13:31:41.605Z,24.27
2018-04-24T13:34:10.953Z,21.67
2018-04-24T13:36:40.437Z,24.83
2018-04-24T13:39:09.896Z,23.33
2018-04-24T13:41:39.229Z,31.60
2018-04-24T13:44:08.641Z,25.17
2018-04-24T13:46:39.814Z,28.37
2018-04-24T13:49:09.214Z,20.53
2018-04-24T13:51:39.131Z,24.43
2018-04-24T13:54:08.585Z,21.53
2018-04-24T13:56:38.036Z,18.23
2018-04-24T13:59:07.610Z,22.63
2018-04-24T14:01:45.407Z,18.10
2018-04-24T14:04:17.995Z,18.10
2018-04-24T14:06:50.646Z,31.60
2018-04-24T14:09:20.554Z,21.20
2018-04-24T14:11:49.822Z,23.43
2018-04-24T14:14:19.196Z,24.80
2018-04-24T14:16:48.479Z,23.10
2018-04-24T14:19:17.902Z,23.83
2018-04-24T14:21:47.265Z,22.87
2018-04-24T14:24:17.031Z,27.03
2018-04-24T14:26:46.337Z,23.33
2018-04-24T14:29:15.904Z,26.83
2018-04-24T14:31:45.380Z,26.20
2018-04-24T14:34:14.801Z,25.97
2018-04-24T14:36:44.224Z,18.73
2018-04-24T14:39:13.646Z,19.17
2018-04-24T14:41:43.920Z,21.63
2018-04-24T14:44:17.153Z,21.90
2018-04-24T14:46:46.674Z,25.93
2018-04-24T14:49:16.860Z,22.13
2018-04-24T14:51:46.284Z,27.40
2018-04-24T14:54:15.643Z,22.03
2018-04-24T14:56:45.141Z,18.13
2018-04-24T14:59:16.516Z,23.60
2018-04-24T15:01:46.135Z,23.30
2018-04-24T15:04:17.387Z,21.00
2018-04-24T15:06:46.976Z,19.70
2018-04-24T15:09:19.510Z,19.70
2018-04-24T15:11:53.911Z,18.23
2018-04-24T15:14:23.386Z,12.87
2018-04-24T15:16:52.805Z,14.27
2018-04-24T15:19:22.182Z,12.00
2018-04-24T15:21:51.748Z,16.43
2018-04-24T15:24:22.042Z,19.37
2018-04-24T15:26:52.586Z,17.87
2018-04-24T15:29:23.611Z,20.60
2018-04-24T15:31:53.206Z,27.57
2018-04-24T15:37:53.536Z,19.17
2018-04-24T15:40:22.856Z,35.83
2018-04-24T15:42:52.158Z,17.63
2018-04-24T15:45:21.564Z,21.03
2018-04-24T15:47:51.053Z,23.77
2018-04-24T15:50:20.361Z,23.17
2018-04-24T15:52:49.782Z,25.07
2018-04-24T15:55:19.107Z,52.10
2018-04-24T15:57:48.425Z,93.93
2018-04-24T16:00:17.792Z,24.30
2018-04-24T16:02:47.177Z,57.30
2018-04-24T16:05:17.282Z,30.47
2018-04-24T16:07:48.455Z,28.03
2018-04-24T16:10:18.065Z,38.67
2018-04-24T16:12:47.416Z,22.40
2018-04-24T16:15:16.766Z,25.90
2018-04-24T16:17:46.059Z,62.07
2018-04-24T16:20:15.404Z,47.53
2018-04-24T16:22:44.827Z,38.03
2018-04-24T16:25:14.168Z,34.17
2018-04-24T16:27:43.516Z,15.93
2018-04-24T16:30:12.961Z,94.97
2018-04-24T16:32:43.139Z,21.25
2018-04-24T16:35:12.492Z,39.65
2018-04-24T16:37:41.870Z,21.17
2018-04-24T16:40:11.211Z,13.48
2018-04-24T16:42:40.693Z,14.93
2018-04-24T16:45:10.262Z,19.80
2018-04-24T16:47:39.604Z,21.52
2018-04-24T16:50:08.964Z,17.23
2018-04-24T16:52:38.490Z,19.43
2018-04-24T16:55:07.779Z,19.75
2018-04-24T16:57:37.332Z,19.10
2018-04-24T17:00:06.872Z,14.68
2018-04-24T17:02:38.231Z,14.52
2018-04-24T17:05:07.647Z,14.38
2018-04-24T17:07:36.977Z,26.15
2018-04-24T17:10:06.404Z,14.10
2018-04-24T17:12:35.791Z,12.02
2018-04-24T17:15:05.320Z,9.15
2018-04-24T17:17:34.705Z,10.52
2018-04-24T17:20:04.158Z,12.77
2018-04-24T17:22:33.560Z,25.90
2018-04-24T17:25:03.912Z,38.92
2018-04-24T17:27:33.376Z,11.35
2018-04-24T17:30:03.066Z,11.12
2018-04-24T17:32:32.667Z,17.37
2018-04-24T17:35:02.139Z,22.58
2018-04-24T17:37:31.486Z,22.75
2018-04-24T17:40:01.119Z,14.15
2018-04-24T17:42:30.510Z,11.23
2018-04-24T17:45:00.223Z,25.58
2018-04-24T17:47:29.512Z,10.68
2018-04-24T17:49:58.937Z,16.83
2018-04-24T17:52:29.039Z,16.62
2018-04-24T17:54:58.356Z,15.18
2018-04-24T17:57:27.709Z,22.48
2018-04-24T17:59:57.008Z,28.87
2018-04-24T18:02:26.337Z,18.02
2018-04-24T18:04:55.722Z,18.77
2018-04-24T18:07:25.838Z,12.90
2018-04-24T18:09:59.054Z,23.27
2018-04-24T18:12:28.393Z,17.27
2018-04-24T18:14:57.727Z,14.80
2018-04-24T18:17:27.065Z,15.18
2018-04-24T18:19:57.176Z,17.83
2018-04-24T18:22:27.295Z,25.95
2018-04-24T18:24:56.688Z,17.20
2018-04-24T18:31:20.959Z,12.60
2018-04-24T18:33:50.253Z,14.20
2018-04-24T18:36:20.361Z,12.40
2018-04-24T18:38:49.660Z,18.67
2018-04-24T18:41:18.938Z,14.63
2018-04-24T18:43:48.159Z,14.27
2018-04-24T18:46:17.486Z,12.18
2018-04-24T18:48:47.477Z,13.98
2018-04-24T18:51:16.785Z,12.10
2018-04-24T18:53:46.036Z,13.18
2018-04-24T18:56:15.281Z,17.75
2018-04-24T18:58:44.568Z,13.73
2018-04-24T19:01:13.860Z,12.80
2018-04-24T19:03:43.105Z,15.50
2018-04-24T19:06:12.591Z,9.70
2018-04-24T19:08:42.452Z,12.37
2018-04-24T19:11:12.638Z,13.57
2018-04-24T19:13:42.057Z,10.25
2018-04-24T19:16:11.411Z,17.10
2018-04-24T19:18:46.046Z,11.63
2018-04-24T19:21:16.101Z,17.85
2018-04-24T19:23:48.289Z,13.65
2018-04-24T19:26:17.619Z,12.15
2018-04-24T19:28:47.070Z,9.93
2018-04-24T19:31:21.644Z,10.90
2018-04-24T19:33:51.708Z,13.88
2018-04-24T19:36:21.038Z,18.70
2018-04-24T19:38:56.141Z,12.23
2018-04-24T19:41:30.882Z,11.95
2018-04-24T19:44:00.738Z,11.73
2018-04-24T19:46:38.068Z,12.48
2018-04-24T19:49:15.509Z,14.02
2018-04-24T19:51:50.072Z,11.18
2018-04-24T19:54:21.078Z,10.65
2018-04-24T19:56:53.858Z,12.88
2018-04-24T20:02:52.075Z,10.85
2018-04-24T20:05:26.931Z,13.02
2018-04-24T20:08:36.770Z,13.85
2018-04-24T20:11:10.872Z,16.08
2018-04-24T20:13:40.649Z,12.35
2018-04-24T20:16:10.968Z,13.65
2018-04-24T20:18:41.151Z,12.63
2018-04-24T20:21:12.145Z,11.32
2018-04-24T20:23:41.727Z,11.05
2018-04-24T20:26:11.243Z,11.88
2018-04-24T20:28:40.691Z,17.20
2018-04-24T20:31:10.613Z,10.30
2018-04-24T20:33:40.184Z,11.25
2018-04-24T20:36:10.109Z,14.82
2018-04-24T20:38:39.550Z,17.95
2018-04-24T20:41:09.514Z,14.13
2018-04-24T20:43:40.729Z,14.48
2018-04-24T20:46:10.495Z,14.23
2018-04-24T20:48:40.078Z,16.25
2018-04-24T20:51:18.314Z,19.75
2018-04-24T20:53:48.850Z,13.75
2018-04-24T20:56:18.235Z,18.77
2018-04-24T20:58:48.762Z,12.00
2018-04-24T21:01:23.449Z,16.33
2018-04-24T21:03:53.249Z,15.68
2018-04-24T21:06:22.738Z,14.25
2018-04-24T21:08:52.181Z,15.23
2018-04-24T21:11:21.696Z,12.70
2018-04-24T21:17:23.892Z,10.85
2018-04-24T21:19:53.596Z,12.02
2018-04-24T21:22:24.227Z,17.65
2018-04-24T21:24:57.774Z,16.23
2018-04-24T21:27:31.321Z,14.87
2018-04-24T21:30:02.944Z,16.48
2018-04-24T21:32:33.727Z,18.92
2018-04-24T21:35:03.606Z,19.08
2018-04-24T21:37:43.076Z,15.95
2018-04-24T21:40:13.132Z,14.55
2018-04-24T21:42:42.537Z,12.20
2018-04-24T21:45:12.853Z,11.90
2018-04-24T21:47:42.295Z,15.60
2018-04-24T21:50:11.708Z,11.80
2018-04-24T21:52:41.118Z,14.48
2018-04-24T21:55:10.601Z,10.43
2018-04-24T21:57:40.005Z,12.48
2018-04-24T22:00:09.606Z,17.17
2018-04-24T22:02:39.044Z,15.27
2018-04-24T22:05:08.435Z,13.55
2018-04-24T22:07:37.855Z,10.93
2018-04-24T22:10:07.296Z,14.15
2018-04-24T22:12:36.695Z,9.95
2018-04-24T22:15:06.207Z,13.50
2018-04-24T22:17:35.675Z,15.88
2018-04-24T22:20:06.377Z,12.30
2018-04-24T22:22:35.973Z,15.27
2018-04-24T22:25:05.440Z,16.67
2018-04-24T22:27:34.846Z,18.33
2018-04-24T22:30:05.269Z,11.00
2018-04-24T22:32:34.919Z,12.52
2018-04-24T22:35:04.448Z,16.20
2018-04-24T22:37:34.091Z,13.03
2018-04-24T22:40:03.498Z,14.80
2018-04-24T22:42:32.891Z,11.53
2018-04-24T22:45:02.364Z,15.43
2018-04-24T22:47:33.157Z,12.48
2018-04-24T22:50:04.303Z,13.05
2018-04-24T22:52:35.360Z,13.80
2018-04-24T22:55:05.164Z,16.10
2018-04-24T22:57:34.725Z,15.77
2018-04-24T23:00:06.003Z,14.10
2018-04-24T23:02:36.258Z,13.70
2018-04-24T23:05:06.182Z,18.13
2018-04-24T23:07:37.140Z,19.47
2018-04-24T23:10:07.248Z,15.90
2018-04-24T23:12:47.969Z,13.07
2018-04-24T23:18:58.501Z,14.67
2018-04-24T23:21:28.309Z,15.93
2018-04-24T23:24:00.033Z,17.63
2018-04-24T23:26:29.724Z,23.77
2018-04-24T23:28:59.187Z,17.57
2018-04-24T23:31:28.662Z,16.73
2018-04-24T23:33:59.246Z,15.53
2018-04-24T23:36:28.927Z,23.90
2018-04-24T23:38:58.348Z,18.00
2018-04-24T23:41:29.739Z,20.97
2018-04-24T23:43:59.146Z,16.70
2018-04-24T23:46:28.610Z,20.13
2018-04-24T23:48:58.231Z,16.03
2018-04-24T23:51:31.039Z,19.17
2018-04-24T23:54:00.645Z,23.77
2018-04-24T23:56:30.411Z,18.77
2018-04-24T23:59:00.003Z,20.90
